Time;durP1;ratioP1;P1;durP2;ratioP2;P2;SDS_P1;SDS_P2;PMS_P1;PMS_P2;Temp;Humidity;BMP_temperature;BMP_pressure;BME280_temperature;BME280_humidity;BME280_pressure;Samples;Min_cycle;Max_cycle;Signal;HPM_P1;HPM_P2
2022/10/31 00:01:54;;;;;;;3.70;2.45;;;12.60;99.90;;;;;;4938881;29;20394;-69
2022/10/31 00:04:19;;;;;;;3.90;2.20;;;12.60;99.90;;;;;;4936416;29;20476;-70
2022/10/31 00:06:45;;;;;;;6.53;2.60;;;12.60;99.90;;;;;;4935848;29;20411;-69
2022/10/31 00:09:11;;;;;;;4.07;2.17;;;12.60;99.90;;;;;;4936855;29;20498;-70
2022/10/31 00:11:36;;;;;;;5.13;2.15;;;12.60;99.90;;;;;;4936347;29;20824;-70
2022/10/31 00:14:02;;;;;;;5.03;2.60;;;12.50;99.90;;;;;;4937045;29;20403;-69
2022/10/31 00:16:29;;;;;;;5.47;2.33;;;12.50;99.90;;;;;;4936764;29;20423;-69
2022/10/31 00:18:58;;;;;;;4.57;2.40;;;12.50;99.90;;;;;;4936209;29;20481;-69
2022/10/31 00:21:25;;;;;;;5.40;2.20;;;12.60;99.90;;;;;;4935214;29;20390;-69
2022/10/31 00:23:50;;;;;;;4.80;2.22;;;12.50;99.90;;;;;;4936891;29;20400;-69
2022/10/31 00:26:16;;;;;;;4.72;2.20;;;12.60;99.90;;;;;;4935446;29;20398;-68
2022/10/31 00:28:42;;;;;;;2.80;2.08;;;12.60;99.90;;;;;;4935144;29;20417;-69
2022/10/31 00:31:10;;;;;;;4.15;2.35;;;12.60;99.90;;;;;;4934270;29;20419;-69
2022/10/31 00:33:38;;;;;;;7.07;2.28;;;12.60;99.90;;;;;;4934947;29;20414;-70
2022/10/31 00:36:06;;;;;;;3.40;2.40;;;12.60;99.90;;;;;;4935453;29;20509;-69
2022/10/31 00:38:32;;;;;;;4.50;2.10;;;12.70;99.90;;;;;;4935304;29;20790;-69
2022/10/31 00:40:57;;;;;;;5.13;2.10;;;12.60;99.90;;;;;;4934984;29;20407;-70
2022/10/31 00:43:23;;;;;;;4.53;2.60;;;12.60;99.90;;;;;;4935046;29;20797;-69
2022/10/31 00:45:49;;;;;;;4.60;2.58;;;12.40;99.90;;;;;;4934560;29;20414;-69
2022/10/31 00:48:15;;;;;;;5.68;2.20;;;12.50;99.90;;;;;;4935142;29;20395;-69
2022/10/31 00:50:41;;;;;;;4.87;3.67;;;12.40;99.90;;;;;;4935320;29;20435;-69
2022/10/31 00:53:06;;;;;;;8.45;5.50;;;12.40;99.90;;;;;;4935126;29;20398;-70
2022/10/31 00:55:33;;;;;;;4.27;2.20;;;12.40;99.90;;;;;;4935570;29;20379;-69
2022/10/31 00:57:58;;;;;;;4.70;2.63;;;12.40;99.90;;;;;;4936996;29;20449;-69
2022/10/31 01:00:24;;;;;;;6.60;2.30;;;12.50;99.90;;;;;;4937371;29;20431;-70
2022/10/31 01:02:49;;;;;;;5.28;2.08;;;12.40;99.90;;;;;;4934386;29;20910;-70
2022/10/31 01:05:15;;;;;;;4.88;2.00;;;12.40;99.90;;;;;;4940499;29;20395;-70
2022/10/31 01:07:41;;;;;;;3.63;2.50;;;12.40;99.90;;;;;;4934639;29;20403;-69
2022/10/31 01:10:08;;;;;;;5.45;2.45;;;12.50;99.90;;;;;;4935059;29;20498;-70
2022/10/31 01:12:42;;;;;;;3.50;2.03;;;12.40;99.90;;;;;;4934818;29;20422;-68
2022/10/31 01:15:09;;;;;;;5.97;2.60;;;12.50;99.90;;;;;;4935066;29;21117;-69
2022/10/31 01:17:34;;;;;;;5.30;2.38;;;12.40;99.90;;;;;;4935484;29;21013;-69
2022/10/31 01:20:00;;;;;;;4.03;2.58;;;12.30;99.90;;;;;;4938148;29;20490;-69
2022/10/31 01:22:25;;;;;;;5.10;2.70;;;12.30;99.90;;;;;;4936923;29;20551;-68
2022/10/31 01:24:51;;;;;;;3.60;1.97;;;12.30;99.90;;;;;;4936150;29;20478;-69
2022/10/31 01:27:16;;;;;;;3.53;2.10;;;12.20;99.90;;;;;;4935823;29;20422;-70
2022/10/31 01:29:42;;;;;;;4.38;2.45;;;12.20;99.90;;;;;;4935501;29;20521;-69
2022/10/31 01:32:07;;;;;;;6.00;2.33;;;12.20;99.90;;;;;;4935897;29;20505;-69
2022/10/31 01:34:33;;;;;;;3.73;2.20;;;12.20;99.90;;;;;;4934464;29;20442;-69
2022/10/31 01:36:59;;;;;;;5.95;2.80;;;12.10;99.90;;;;;;4934221;29;20424;-69
2022/10/31 01:39:24;;;;;;;4.82;2.83;;;12.20;99.90;;;;;;4938297;28;20995;-69
2022/10/31 01:41:52;;;;;;;5.60;2.57;;;12.10;99.90;;;;;;4936445;28;20454;-69
2022/10/31 01:44:17;;;;;;;2.40;1.70;;;12.20;99.90;;;;;;4937396;29;20783;-70
2022/10/31 01:46:54;;;;;;;3.77;2.10;;;12.30;99.90;;;;;;4940243;29;20441;-69
2022/10/31 01:49:28;;;;;;;3.42;2.42;;;12.40;99.90;;;;;;4937648;28;20403;-69
2022/10/31 01:51:58;;;;;;;5.20;2.10;;;12.40;99.90;;;;;;4936141;29;20391;-69
2022/10/31 01:54:26;;;;;;;2.80;2.20;;;12.30;99.90;;;;;;4942475;29;20394;-69
2022/10/31 01:56:54;;;;;;;5.65;2.10;;;12.30;99.90;;;;;;4953314;28;20567;-69
2022/10/31 01:59:21;;;;;;;4.20;2.00;;;12.30;99.90;;;;;;4946765;28;20400;-69
2022/10/31 02:01:49;;;;;;;5.57;2.13;;;12.30;99.90;;;;;;4936903;29;20407;-69
2022/10/31 02:04:15;;;;;;;6.95;1.85;;;12.30;99.90;;;;;;4933583;29;20964;-69
2022/10/31 02:06:54;;;;;;;3.17;2.20;;;12.20;99.90;;;;;;4933992;29;20913;-68
2022/10/31 02:09:23;;;;;;;3.85;2.20;;;12.30;99.90;;;;;;4934203;29;20411;-69
2022/10/31 02:11:51;;;;;;;4.60;2.03;;;12.20;99.90;;;;;;4934951;29;20419;-69
2022/10/31 02:14:16;;;;;;;2.80;2.00;;;12.30;99.90;;;;;;4932544;29;20452;-70
2022/10/31 02:16:42;;;;;;;3.00;2.00;;;12.30;99.90;;;;;;4933817;29;20419;-69
2022/10/31 02:19:11;;;;;;;5.87;2.20;;;12.40;99.90;;;;;;4937964;28;20415;-69
2022/10/31 02:21:52;;;;;;;3.90;2.22;;;12.40;99.90;;;;;;4932757;29;20407;-70
2022/10/31 02:24:44;;;;;;;3.47;2.00;;;12.30;99.90;;;;;;4934493;29;20977;-69
2022/10/31 02:27:19;;;;;;;2.95;2.20;;;12.40;99.90;;;;;;4936428;29;20494;-69
2022/10/31 02:29:50;;;;;;;6.63;1.83;;;12.30;99.90;;;;;;4933990;29;20407;-70
2022/10/31 02:32:39;;;;;;;4.32;2.42;;;12.40;99.90;;;;;;4933362;29;20426;-69
2022/10/31 02:35:16;;;;;;;3.60;2.28;;;12.40;99.90;;;;;;4933792;29;20441;-70
2022/10/31 02:38:12;;;;;;;5.13;2.33;;;12.50;99.90;;;;;;4928297;29;20419;-69
2022/10/31 02:40:56;;;;;;;4.80;2.50;;;12.50;99.90;;;;;;4927217;29;20466;-69
2022/10/31 02:43:42;;;;;;;3.45;2.30;;;12.50;99.90;;;;;;4934087;29;20510;-69
2022/10/31 02:46:15;;;;;;;4.85;2.20;;;12.50;99.90;;;;;;4933627;29;20494;-69
2022/10/31 02:48:44;;;;;;;6.60;2.10;;;12.40;99.90;;;;;;4934633;29;20410;-70
2022/10/31 02:51:11;;;;;;;3.50;2.10;;;12.40;99.90;;;;;;4934404;29;20416;-69
2022/10/31 02:53:38;;;;;;;4.72;2.13;;;12.30;99.90;;;;;;4934828;29;20498;-69
2022/10/31 02:56:19;;;;;;;2.47;2.00;;;12.30;99.90;;;;;;4933949;29;20426;-69
2022/10/31 02:58:50;;;;;;;4.90;2.70;;;12.40;99.90;;;;;;4933454;29;20456;-70
2022/10/31 03:01:27;;;;;;;4.10;2.10;;;12.40;99.90;;;;;;4939601;29;20484;-69
2022/10/31 03:04:10;;;;;;;3.40;2.53;;;12.40;99.90;;;;;;4939446;29;20405;-69
2022/10/31 03:07:00;;;;;;;4.45;2.25;;;12.30;99.90;;;;;;4934488;29;20387;-70
2022/10/31 03:10:04;;;;;;;4.43;2.20;;;12.30;99.90;;;;;;4940968;29;20425;-70
2022/10/31 03:12:42;;;;;;;5.00;2.33;;;12.30;99.90;;;;;;4920462;29;20411;-70
2022/10/31 03:15:26;;;;;;;4.03;2.30;;;12.20;99.90;;;;;;4920518;29;20451;-69
2022/10/31 03:17:58;;;;;;;5.30;2.40;;;12.00;99.90;;;;;;4936336;29;20569;-69
2022/10/31 03:20:34;;;;;;;3.60;2.30;;;12.10;99.90;;;;;;4946063;29;20472;-70
2022/10/31 03:23:02;;;;;;;5.18;2.70;;;12.10;99.90;;;;;;4941654;29;20411;-70
2022/10/31 03:25:30;;;;;;;4.28;2.40;;;12.20;99.90;;;;;;4945098;29;20430;-69
2022/10/31 03:27:58;;;;;;;3.75;2.30;;;12.20;99.90;;;;;;4942910;29;20487;-69
2022/10/31 03:30:24;;;;;;;4.40;2.20;;;12.30;99.90;;;;;;4941899;29;20398;-69
2022/10/31 03:32:54;;;;;;;4.80;2.47;;;12.20;99.90;;;;;;4938366;29;20426;-69
2022/10/31 03:35:23;;;;;;;4.15;2.30;;;12.00;99.90;;;;;;4938209;29;21069;-69
2022/10/31 03:37:50;;;;;;;4.20;2.53;;;12.00;99.90;;;;;;4937713;29;20426;-69
2022/10/31 03:40:19;;;;;;;6.55;2.20;;;12.00;99.90;;;;;;4937940;29;20414;-69
2022/10/31 03:43:01;;;;;;;3.73;2.30;;;12.10;99.90;;;;;;4938644;29;20499;-69
2022/10/31 03:45:30;;;;;;;4.82;2.70;;;12.10;99.90;;;;;;4938924;29;20435;-69
2022/10/31 03:47:57;;;;;;;3.60;2.10;;;12.10;99.90;;;;;;4936393;29;20705;-69
2022/10/31 03:50:28;;;;;;;3.63;2.60;;;12.10;99.90;;;;;;4939154;29;20422;-69
2022/10/31 03:53:11;;;;;;;5.07;2.60;;;12.20;99.90;;;;;;4938276;29;20498;-69
2022/10/31 03:55:52;;;;;;;4.60;2.40;;;12.20;99.90;;;;;;4931742;29;20426;-69
2022/10/31 03:58:47;;;;;;;3.63;2.30;;;12.20;99.90;;;;;;4941811;29;20446;-69
2022/10/31 04:01:16;;;;;;;6.25;2.55;;;12.30;99.90;;;;;;4932216;29;20462;-69
2022/10/31 04:03:44;;;;;;;6.25;2.53;;;12.20;99.90;;;;;;4936270;29;20762;-68
2022/10/31 04:06:13;;;;;;;5.50;3.00;;;12.20;99.90;;;;;;4938585;29;20408;-69
2022/10/31 04:08:47;;;;;;;4.20;2.40;;;12.20;99.90;;;;;;4937953;29;20518;-69
2022/10/31 04:11:15;;;;;;;3.58;2.30;;;12.10;99.90;;;;;;4938076;29;20395;-69
2022/10/31 04:13:43;;;;;;;6.00;2.40;;;12.20;99.90;;;;;;4935305;29;20412;-68
2022/10/31 04:16:10;;;;;;;3.40;1.98;;;12.10;99.90;;;;;;4935841;29;20918;-69
2022/10/31 04:18:35;;;;;;;3.55;2.40;;;12.20;99.90;;;;;;4935493;29;20776;-69
2022/10/31 04:21:07;;;;;;;3.10;2.00;;;12.10;99.90;;;;;;4936279;29;20395;-69
2022/10/31 04:23:34;;;;;;;2.47;1.80;;;12.20;99.90;;;;;;4940293;29;20794;-69
2022/10/31 04:25:59;;;;;;;4.68;2.30;;;12.20;99.90;;;;;;4936934;29;20502;-69
2022/10/31 04:28:25;;;;;;;3.20;2.13;;;12.10;99.90;;;;;;4936266;29;20517;-69
2022/10/31 04:30:51;;;;;;;5.53;2.40;;;12.10;99.90;;;;;;4939093;28;20501;-69
2022/10/31 04:33:17;;;;;;;4.28;2.10;;;12.20;99.90;;;;;;4933946;29;20422;-70
2022/10/31 04:35:42;;;;;;;4.80;2.30;;;12.20;99.90;;;;;;4934248;29;20958;-69
2022/10/31 04:38:08;;;;;;;2.40;2.20;;;12.20;99.90;;;;;;4935058;29;20416;-70
2022/10/31 04:40:34;;;;;;;3.30;2.10;;;12.30;99.90;;;;;;4934978;29;20422;-71
2022/10/31 04:42:59;;;;;;;2.10;1.90;;;12.30;99.90;;;;;;4934191;29;20407;-69
2022/10/31 04:45:25;;;;;;;5.40;2.60;;;12.30;99.90;;;;;;4936681;29;20793;-69
2022/10/31 04:47:51;;;;;;;7.05;2.70;;;12.30;99.90;;;;;;4937528;29;20794;-70
2022/10/31 04:50:16;;;;;;;2.72;2.05;;;12.30;99.90;;;;;;4936188;29;20419;-69
2022/10/31 04:52:44;;;;;;;6.33;2.90;;;12.30;99.90;;;;;;4934908;29;20415;-69
2022/10/31 04:55:10;;;;;;;4.03;2.22;;;12.30;99.90;;;;;;4935471;29;20452;-69
2022/10/31 04:57:43;;;;;;;6.38;2.60;;;12.30;99.90;;;;;;4936008;29;20423;-69
2022/10/31 05:00:10;;;;;;;3.55;2.63;;;12.30;99.90;;;;;;4938512;28;20406;-69
2022/10/31 05:03:02;;;;;;;3.30;2.60;;;12.20;99.90;;;;;;4935906;29;20485;-69
2022/10/31 05:05:30;;;;;;;6.30;2.60;;;12.20;99.90;;;;;;4940626;29;20407;-69
2022/10/31 05:07:55;;;;;;;3.17;2.20;;;12.20;99.90;;;;;;4936901;29;20937;-70
2022/10/31 05:10:24;;;;;;;3.63;2.40;;;12.20;99.90;;;;;;4935928;29;20423;-70
2022/10/31 05:12:58;;;;;;;6.30;2.30;;;12.20;99.90;;;;;;4928779;29;20499;-70
2022/10/31 05:15:24;;;;;;;5.28;2.53;;;12.20;99.90;;;;;;4934122;29;20423;-69
2022/10/31 05:17:50;;;;;;;7.53;3.45;;;12.20;99.90;;;;;;4933355;29;20431;-69
2022/10/31 05:20:18;;;;;;;3.20;2.20;;;12.20;99.90;;;;;;4937403;29;20506;-69
2022/10/31 05:22:49;;;;;;;5.15;2.28;;;12.00;99.90;;;;;;4947807;28;20910;-69
2022/10/31 05:25:15;;;;;;;3.47;2.53;;;12.00;99.90;;;;;;4934275;29;20423;-69
2022/10/31 05:27:43;;;;;;;6.05;2.50;;;12.00;99.90;;;;;;4935261;29;20462;-69
2022/10/31 05:30:11;;;;;;;4.32;2.60;;;11.90;99.90;;;;;;4933903;29;20423;-69
2022/10/31 05:32:45;;;;;;;5.25;2.40;;;11.90;99.90;;;;;;4935088;29;20806;-69
2022/10/31 05:35:13;;;;;;;6.00;3.13;;;11.90;99.90;;;;;;4934648;29;20423;-69
2022/10/31 05:37:39;;;;;;;5.15;2.40;;;11.90;99.90;;;;;;4967355;23;20811;-72
2022/10/31 05:40:06;;;;;;;3.13;2.57;;;11.90;99.90;;;;;;4952914;28;20477;-72
2022/10/31 05:42:32;;;;;;;4.50;2.72;;;12.00;99.90;;;;;;4948663;28;20402;-72
2022/10/31 05:44:58;;;;;;;4.90;3.40;;;11.90;99.90;;;;;;4951853;28;20486;-72
2022/10/31 05:47:24;;;;;;;5.50;3.35;;;11.80;99.90;;;;;;4951556;28;20780;-72
2022/10/31 05:49:49;;;;;;;6.43;4.00;;;11.80;99.90;;;;;;4951731;29;20830;-73
2022/10/31 05:52:15;;;;;;;5.57;3.77;;;11.80;99.90;;;;;;4953100;29;20406;-73
2022/10/31 05:54:41;;;;;;;5.53;4.30;;;11.80;99.90;;;;;;4951495;29;20432;-73
2022/10/31 05:57:07;;;;;;;5.40;4.17;;;11.70;99.90;;;;;;4951220;28;20484;-71
2022/10/31 05:59:32;;;;;;;7.00;4.10;;;11.80;99.90;;;;;;4951938;28;20795;-71
2022/10/31 06:01:58;;;;;;;5.40;3.90;;;11.80;99.90;;;;;;4951160;29;20411;-72
2022/10/31 06:04:23;;;;;;;5.00;3.50;;;11.80;99.90;;;;;;4951570;28;20418;-71
2022/10/31 06:06:49;;;;;;;5.55;3.80;;;11.80;99.90;;;;;;4951765;29;20421;-72
2022/10/31 06:09:15;;;;;;;5.37;3.93;;;11.90;99.90;;;;;;4950217;28;20484;-72
2022/10/31 06:11:40;;;;;;;4.80;3.63;;;11.90;99.90;;;;;;4950236;29;20409;-72
2022/10/31 06:14:06;;;;;;;6.03;3.30;;;11.80;99.90;;;;;;4952342;29;20409;-72
2022/10/31 06:16:31;;;;;;;5.63;3.22;;;11.80;99.90;;;;;;4950552;28;20418;-72
2022/10/31 06:18:57;;;;;;;4.57;3.90;;;11.80;99.90;;;;;;4951813;29;20408;-72
2022/10/31 06:21:23;;;;;;;3.80;3.40;;;11.80;99.90;;;;;;4951815;28;20406;-72
2022/10/31 06:23:49;;;;;;;3.57;3.10;;;11.80;99.90;;;;;;4951656;29;20413;-73
2022/10/31 06:26:14;;;;;;;4.30;3.20;;;11.90;99.90;;;;;;4950790;28;20423;-73
2022/10/31 06:28:40;;;;;;;5.53;3.17;;;11.90;99.90;;;;;;4951030;28;20418;-73
2022/10/31 06:31:05;;;;;;;5.28;3.10;;;11.90;99.90;;;;;;4949784;28;20468;-73
2022/10/31 06:33:31;;;;;;;4.32;2.72;;;11.90;99.90;;;;;;4950611;28;20414;-72
2022/10/31 06:35:56;;;;;;;4.00;2.73;;;11.90;99.90;;;;;;4949120;28;20418;-73
2022/10/31 06:38:22;;;;;;;5.90;2.90;;;11.80;99.90;;;;;;4951004;28;20409;-72
2022/10/31 06:40:47;;;;;;;4.68;2.80;;;11.90;99.90;;;;;;4950274;28;20406;-72
2022/10/31 06:43:14;;;;;;;4.07;2.72;;;11.90;99.90;;;;;;4951022;29;20410;-73
2022/10/31 06:45:40;;;;;;;6.33;3.60;;;12.00;99.90;;;;;;4950347;28;20416;-72
2022/10/31 06:48:06;;;;;;;6.00;3.57;;;12.10;99.90;;;;;;4950345;29;20900;-71
2022/10/31 06:50:31;;;;;;;6.20;2.73;;;12.20;99.90;;;;;;4951591;28;20413;-72
2022/10/31 06:52:59;;;;;;;4.10;2.70;;;12.20;99.90;;;;;;4951153;29;20480;-71
2022/10/31 06:55:26;;;;;;;4.93;2.88;;;12.20;99.90;;;;;;4951227;28;20418;-71
2022/10/31 06:57:53;;;;;;;4.68;2.90;;;12.30;99.90;;;;;;4947906;28;20460;-71
2022/10/31 07:00:19;;;;;;;5.80;2.78;;;12.30;99.90;;;;;;4950764;28;20420;-72
2022/10/31 07:02:56;;;;;;;6.45;2.88;;;12.30;99.90;;;;;;4951921;28;20421;-71
2022/10/31 07:05:22;;;;;;;3.33;2.60;;;12.30;99.90;;;;;;4948912;28;20420;-71
2022/10/31 07:07:52;;;;;;;3.42;2.65;;;12.30;99.90;;;;;;4948830;28;20493;-71
2022/10/31 07:10:18;;;;;;;5.40;3.03;;;12.40;99.90;;;;;;4951019;28;20402;-70
2022/10/31 07:12:43;;;;;;;4.97;3.10;;;12.40;99.90;;;;;;4950952;28;20417;-71
2022/10/31 07:15:09;;;;;;;5.53;3.30;;;12.50;99.90;;;;;;4950170;28;20440;-70
2022/10/31 07:17:34;;;;;;;5.40;3.20;;;12.50;99.90;;;;;;4948798;28;20425;-71
2022/10/31 07:20:00;;;;;;;6.47;3.70;;;12.50;99.90;;;;;;4951461;28;20460;-71
2022/10/31 07:22:35;;;;;;;6.30;3.00;;;12.60;99.90;;;;;;4947812;28;20457;-71
2022/10/31 07:25:00;;;;;;;6.75;4.15;;;12.60;99.90;;;;;;4952576;28;20494;-70
2022/10/31 07:27:26;;;;;;;6.45;3.70;;;12.60;99.90;;;;;;4949781;28;20506;-71
2022/10/31 07:29:51;;;;;;;7.63;3.50;;;12.70;99.90;;;;;;4943433;28;20432;-71
2022/10/31 07:32:17;;;;;;;6.63;3.40;;;12.70;99.90;;;;;;4948340;28;20785;-71
2022/10/31 07:34:42;;;;;;;6.43;2.87;;;12.80;99.90;;;;;;4945201;29;20522;-70
2022/10/31 07:37:08;;;;;;;7.38;3.20;;;12.90;99.90;;;;;;4950121;29;20520;-71
2022/10/31 07:39:34;;;;;;;5.70;4.00;;;12.90;99.90;;;;;;4950762;28;20519;-72
2022/10/31 07:41:59;;;;;;;6.27;3.27;;;13.00;99.90;;;;;;4951260;28;20990;-73
2022/10/31 07:44:25;;;;;;;5.63;3.30;;;13.00;99.90;;;;;;4951141;29;20402;-72
2022/10/31 07:46:50;;;;;;;4.75;3.08;;;13.00;99.90;;;;;;4951891;28;20887;-71
2022/10/31 07:49:16;;;;;;;5.40;3.57;;;13.10;99.90;;;;;;4955436;29;20398;-71
2022/10/31 07:51:41;;;;;;;5.37;3.20;;;13.10;99.90;;;;;;4955334;28;20394;-72
2022/10/31 07:54:07;;;;;;;4.70;3.30;;;13.10;99.90;;;;;;4954523;28;20406;-72
2022/10/31 07:56:33;;;;;;;4.60;2.90;;;13.20;99.90;;;;;;4955012;28;20962;-72
2022/10/31 07:58:58;;;;;;;7.97;3.40;;;13.40;99.90;;;;;;4949677;28;20398;-71
2022/10/31 08:01:24;;;;;;;5.50;3.63;;;13.40;99.90;;;;;;4944651;28;20398;-71
2022/10/31 08:03:49;;;;;;;5.37;3.53;;;13.40;99.90;;;;;;4954762;28;20876;-71
2022/10/31 08:06:15;;;;;;;4.30;3.10;;;13.50;99.90;;;;;;4955247;29;20389;-71
2022/10/31 08:08:40;;;;;;;7.10;3.60;;;13.60;99.90;;;;;;4953378;29;20508;-71
2022/10/31 08:11:06;;;;;;;7.00;3.50;;;13.70;99.90;;;;;;4952220;29;20418;-73
2022/10/31 08:13:31;;;;;;;8.00;4.10;;;13.80;99.90;;;;;;4949947;28;20425;-72
2022/10/31 08:16:03;;;;;;;7.32;3.30;;;13.80;99.90;;;;;;4950654;28;20410;-72
2022/10/31 08:18:29;;;;;;;4.85;3.20;;;13.90;99.90;;;;;;4952727;28;20432;-72
2022/10/31 08:20:54;;;;;;;6.13;3.50;;;13.90;99.90;;;;;;4954607;28;20923;-71
2022/10/31 08:23:20;;;;;;;5.37;4.20;;;14.00;99.90;;;;;;4951106;28;20466;-71
2022/10/31 08:25:47;;;;;;;5.60;3.70;;;14.10;99.90;;;;;;4952248;29;20505;-72
2022/10/31 08:28:13;;;;;;;6.55;4.10;;;14.20;99.90;;;;;;4952092;29;20394;-71
2022/10/31 08:30:40;;;;;;;5.15;2.90;;;14.20;99.90;;;;;;4954173;28;20402;-71
2022/10/31 08:33:17;;;;;;;6.55;3.10;;;14.20;99.90;;;;;;4951477;28;20425;-70
2022/10/31 08:35:42;;;;;;;5.40;3.17;;;14.30;99.90;;;;;;4948518;28;20513;-70
2022/10/31 08:38:10;;;;;;;6.43;3.60;;;14.50;99.90;;;;;;4952131;28;20449;-70
2022/10/31 08:40:35;;;;;;;4.43;3.10;;;14.50;99.90;;;;;;4951501;28;20469;-71
2022/10/31 08:43:03;;;;;;;5.00;3.27;;;14.50;99.90;;;;;;4953060;29;20402;-70
2022/10/31 08:45:31;;;;;;;3.92;3.00;;;14.60;99.90;;;;;;4954492;28;20411;-70
2022/10/31 08:47:58;;;;;;;5.20;3.78;;;14.60;99.90;;;;;;4944983;28;20476;-70
2022/10/31 08:50:24;;;;;;;10.93;7.63;;;14.70;99.90;;;;;;4946620;28;20435;-69
2022/10/31 08:52:49;;;;;;;10.20;6.43;;;14.70;99.90;;;;;;4947754;28;20452;-71
2022/10/31 08:55:15;;;;;;;6.60;3.83;;;14.80;99.90;;;;;;4949248;29;20425;-71
2022/10/31 08:57:40;;;;;;;7.77;4.00;;;14.90;99.90;;;;;;4950313;28;20417;-69
2022/10/31 09:00:07;;;;;;;7.00;4.17;;;15.00;99.90;;;;;;4944187;28;20457;-71
2022/10/31 09:02:32;;;;;;;5.60;3.50;;;15.00;99.90;;;;;;4950246;28;20492;-70
2022/10/31 09:04:58;;;;;;;4.93;3.63;;;15.00;99.90;;;;;;4950201;28;20892;-71
2022/10/31 09:07:23;;;;;;;6.95;3.58;;;15.10;99.90;;;;;;4951902;28;20400;-71
2022/10/31 09:09:49;;;;;;;7.17;3.60;;;15.20;99.90;;;;;;4952240;28;20398;-71
2022/10/31 09:12:14;;;;;;;8.80;4.03;;;15.30;99.90;;;;;;4952663;28;20740;-71
2022/10/31 09:14:40;;;;;;;10.25;4.60;;;15.30;99.90;;;;;;4952693;28;20401;-71
2022/10/31 09:17:05;;;;;;;13.87;4.40;;;15.30;99.90;;;;;;4952938;28;20418;-71
2022/10/31 09:19:31;;;;;;;13.40;4.17;;;15.40;99.90;;;;;;4953363;28;20420;-70
2022/10/31 09:21:56;;;;;;;6.10;3.40;;;15.50;99.90;;;;;;4953482;28;20414;-71
2022/10/31 09:24:22;;;;;;;6.33;3.53;;;15.80;99.90;;;;;;4953607;28;20422;-71
2022/10/31 09:26:47;;;;;;;6.72;3.75;;;15.80;99.90;;;;;;4953681;28;20481;-70
2022/10/31 09:29:13;;;;;;;6.70;2.73;;;15.90;99.90;;;;;;4953741;28;20839;-71
2022/10/31 09:31:38;;;;;;;8.67;3.50;;;16.10;99.90;;;;;;4953452;28;20385;-70
2022/10/31 09:34:04;;;;;;;8.07;3.35;;;16.10;99.90;;;;;;4953343;28;20398;-71
2022/10/31 09:36:30;;;;;;;5.93;3.13;;;16.20;99.90;;;;;;4953400;28;20465;-71
2022/10/31 09:38:55;;;;;;;7.10;2.80;;;16.30;99.90;;;;;;4953437;28;20436;-71
2022/10/31 09:42:04;;;;;;;9.40;3.60;;;16.20;99.90;;;;;;4953357;28;20390;-71
2022/10/31 09:44:38;;;;;;;5.75;3.25;;;16.40;99.90;;;;;;4967834;28;20393;-71
2022/10/31 09:47:04;;;;;;;3.72;2.67;;;16.40;99.90;;;;;;4953183;28;20397;-71
2022/10/31 09:49:51;;;;;;;6.40;2.80;;;16.50;99.90;;;;;;4953445;28;20396;-72
2022/10/31 09:52:26;;;;;;;7.28;3.58;;;16.60;99.90;;;;;;4952627;28;20895;-71
2022/10/31 09:55:00;;;;;;;6.47;3.50;;;16.80;99.90;;;;;;4950750;28;20428;-71
2022/10/31 09:57:30;;;;;;;6.17;3.63;;;16.80;99.90;;;;;;4943819;28;20426;-71
2022/10/31 09:59:56;;;;;;;6.80;4.10;;;17.00;99.90;;;;;;4951841;28;20404;-71
2022/10/31 10:02:37;;;;;;;8.52;4.13;;;16.80;99.90;;;;;;4952569;28;20510;-70
2022/10/31 10:05:09;;;;;;;11.40;5.90;;;16.90;99.90;;;;;;4952972;29;20758;-71
2022/10/31 10:07:59;;;;;;;8.23;6.20;;;16.90;99.90;;;;;;4943466;28;20422;-70
2022/10/31 10:10:49;;;;;;;7.63;5.80;;;16.80;99.90;;;;;;4949519;28;20420;-70
2022/10/31 10:13:27;;;;;;;8.82;6.53;;;16.90;99.90;;;;;;4950811;28;20406;-70
2022/10/31 10:16:19;;;;;;;7.57;6.72;;;16.80;99.90;;;;;;4950382;28;20398;-70
2022/10/31 10:19:12;;;;;;;8.15;6.68;;;16.80;99.90;;;;;;4946978;28;20402;-71
2022/10/31 10:21:53;;;;;;;8.57;5.72;;;16.70;99.90;;;;;;4949563;28;20828;-71
2022/10/31 10:24:25;;;;;;;9.93;6.00;;;16.70;99.90;;;;;;4954135;28;20392;-71
2022/10/31 10:27:05;;;;;;;10.30;6.00;;;16.60;99.90;;;;;;4965453;28;20390;-71
2022/10/31 10:29:49;;;;;;;7.13;5.38;;;16.50;99.90;;;;;;4962395;28;20400;-71
2022/10/31 10:32:24;;;;;;;9.27;6.78;;;16.60;99.90;;;;;;4952749;28;20424;-71
2022/10/31 10:34:54;;;;;;;8.90;6.25;;;16.50;99.90;;;;;;4946765;29;20896;-71
2022/10/31 10:37:23;;;;;;;9.13;6.10;;;16.50;99.90;;;;;;4952310;28;20458;-71
2022/10/31 10:39:55;;;;;;;9.90;5.68;;;16.60;99.90;;;;;;4949062;28;20401;-71
2022/10/31 10:48:15;;;;;;;9.57;5.93;;;16.50;99.90;;;;;;4952598;29;20740;-71
2022/10/31 10:50:52;;;;;;;9.85;6.78;;;16.40;99.90;;;;;;4952415;29;20421;-71
2022/10/31 10:53:36;;;;;;;7.70;6.00;;;16.40;99.90;;;;;;4952016;28;20394;-71
2022/10/31 10:56:31;;;;;;;7.40;5.70;;;16.30;99.90;;;;;;4953286;28;20403;-71
2022/10/31 10:58:57;;;;;;;8.00;6.00;;;16.20;99.90;;;;;;4951113;28;20402;-71
2022/10/31 11:01:23;;;;;;;13.60;6.75;;;16.20;99.90;;;;;;4951294;28;20400;-72
2022/10/31 11:03:49;;;;;;;9.27;6.18;;;16.20;99.90;;;;;;4952292;28;20805;-71
2022/10/31 11:06:22;;;;;;;8.90;5.60;;;16.20;99.90;;;;;;4952305;28;20907;-71
2022/10/31 11:08:48;;;;;;;7.95;5.95;;;16.40;99.90;;;;;;4960517;28;20916;-71
2022/10/31 11:11:16;;;;;;;8.07;6.20;;;16.50;99.90;;;;;;4966453;28;20877;-71
2022/10/31 11:13:44;;;;;;;6.80;5.72;;;16.50;99.90;;;;;;4951547;28;20402;-72
2022/10/31 11:16:33;;;;;;;7.13;5.60;;;16.80;99.90;;;;;;4963907;28;20401;-73
2022/10/31 11:19:20;;;;;;;9.17;5.60;;;16.70;99.90;;;;;;4955071;28;20408;-72
2022/10/31 11:21:48;;;;;;;8.40;5.68;;;16.70;99.90;;;;;;4969969;28;20867;-72
2022/10/31 11:24:19;;;;;;;6.50;5.10;;;16.70;99.90;;;;;;4974963;28;20416;-72
2022/10/31 11:26:47;;;;;;;10.73;6.43;;;16.80;99.90;;;;;;4975012;28;20423;-72
2022/10/31 11:29:24;;;;;;;7.60;5.83;;;16.80;99.90;;;;;;4962156;28;20485;-72
2022/10/31 11:31:52;;;;;;;9.18;5.28;;;17.00;99.90;;;;;;4954152;28;20775;-72
2022/10/31 11:34:35;;;;;;;6.00;4.40;;;17.00;99.90;;;;;;4944911;28;20423;-72
2022/10/31 11:37:13;;;;;;;8.75;4.55;;;17.30;99.90;;;;;;4975213;23;21746;-74
2022/10/31 11:39:52;;;;;;;8.85;4.20;;;17.30;99.90;;;;;;4949849;29;20401;-74
2022/10/31 11:42:21;;;;;;;7.93;5.00;;;17.80;99.90;;;;;;4946952;29;20385;-75
2022/10/31 11:44:46;;;;;;;6.85;4.43;;;17.90;99.90;;;;;;4952954;28;20760;-74
2022/10/31 11:47:15;;;;;;;8.85;5.50;;;18.00;99.90;;;;;;4955233;28;20398;-75
2022/10/31 11:49:49;;;;;;;7.17;4.90;;;18.40;99.90;;;;;;4955248;28;20400;-75
2022/10/31 11:52:24;;;;;;;6.30;4.50;;;18.70;99.90;;;;;;4938122;29;20391;-74
2022/10/31 11:55:16;;;;;;;5.57;4.10;;;18.90;99.90;;;;;;4936060;29;20449;-74
2022/10/31 11:57:45;;;;;;;6.88;3.90;;;19.40;99.90;;;;;;4935947;29;20438;-74
2022/10/31 12:00:23;;;;;;;4.15;3.70;;;19.90;99.90;;;;;;4936140;29;20438;-74
2022/10/31 12:02:49;;;;;;;7.28;4.10;;;20.30;99.90;;;;;;4934466;29;20905;-74
2022/10/31 12:05:23;;;;;;;6.07;3.60;;;20.70;99.90;;;;;;4936085;29;20402;-74
2022/10/31 12:07:49;;;;;;;6.77;4.03;;;20.20;99.90;;;;;;4935748;29;20435;-74
2022/10/31 12:10:16;;;;;;;6.88;4.00;;;20.80;99.90;;;;;;4935924;29;20399;-74
2022/10/31 12:13:07;;;;;;;7.00;4.55;;;21.70;99.90;;;;;;4935561;29;20403;-75
2022/10/31 12:15:37;;;;;;;6.03;3.38;;;22.10;98.00;;;;;;4936023;29;20399;-75
2022/10/31 12:18:15;;;;;;;5.05;3.15;;;22.20;97.30;;;;;;4935820;29;21165;-75
2022/10/31 12:21:03;;;;;;;3.75;3.05;;;22.70;96.30;;;;;;4938874;29;21021;-75
2022/10/31 12:23:28;;;;;;;7.22;4.03;;;23.50;93.80;;;;;;4954459;29;20396;-75
2022/10/31 12:26:14;;;;;;;5.47;3.23;;;23.80;94.30;;;;;;4954961;29;20394;-75
2022/10/31 12:28:57;;;;;;;4.35;3.20;;;24.00;93.60;;;;;;4954621;29;20414;-75
2022/10/31 12:31:58;;;;;;;5.90;3.30;;;24.40;88.70;;;;;;4954820;29;20493;-75
2022/10/31 12:34:45;;;;;;;7.07;2.70;;;25.20;85.50;;;;;;4952031;28;20401;-75
2022/10/31 12:37:10;;;;;;;7.25;4.30;;;24.40;78.60;;;;;;4954253;29;20420;-75
2022/10/31 12:39:54;;;;;;;10.17;4.97;;;24.20;90.10;;;;;;4954614;29;20390;-75
2022/10/31 12:42:31;;;;;;;5.60;4.80;;;23.70;90.10;;;;;;4954611;29;20894;-75
2022/10/31 12:45:23;;;;;;;7.90;4.30;;;23.00;89.30;;;;;;4954431;29;20451;-75
2022/10/31 12:48:11;;;;;;;8.57;4.50;;;23.30;90.00;;;;;;4954468;28;20408;-75
2022/10/31 12:50:54;;;;;;;7.43;4.38;;;24.60;89.10;;;;;;4954325;29;20452;-75
2022/10/31 12:53:40;;;;;;;5.30;3.90;;;23.90;88.60;;;;;;4952659;29;20919;-75
2022/10/31 12:56:31;;;;;;;5.00;4.03;;;24.00;89.00;;;;;;4953959;29;20919;-75
2022/10/31 12:59:08;;;;;;;7.68;4.20;;;24.90;85.20;;;;;;4954160;29;20499;-75
2022/10/31 13:01:45;;;;;;;5.88;4.00;;;25.70;79.80;;;;;;4952974;29;20449;-75
2022/10/31 13:04:29;;;;;;;7.50;4.50;;;25.40;81.80;;;;;;4953675;29;20976;-75
2022/10/31 13:06:59;;;;;;;6.15;4.05;;;24.80;83.00;;;;;;4954059;29;20398;-75
2022/10/31 13:09:49;;;;;;;7.50;4.32;;;23.60;86.40;;;;;;4954064;28;20470;-75